Hazen, ND

10:17 AM CST on January 23, 2017 (GMT -0600)
Mercer County Regional

Weather History for KHZE - October, 2013

Change the Weather History Date:

Thursday, October 24, 2013

  Actual Average (KN60) Record (KN60)
Temperature  
Mean Temperature 31 °F -  
Max Temperature 39 °F 48 °F 73 °F (2007)
Min Temperature 23 °F 28 °F 19 °F (1997)
Degree Days  
Heating Degree Days 34    
Moisture  
Dew Point 24 °F    
Average Humidity 84    
Maximum Humidity 100    
Minimum Humidity 61    
Precipitation  
Precipitation 0.00 in - - ()
Sea Level Pressure  
Sea Level Pressure 30.30 in    
Wind  
Wind Speed 5 mph (WSW)    
Max Wind Speed 10 mph    
Max Gust Speed -    
Visibility 9 miles    
Events      
Averages and records for this station are not official NWS values.
T = Trace of Precipitation, MM = Missing Value Source: NWS Daily Summary

Daily Weather History Graph

Daily Weather History Graph

Search for Another Location

Airport or City:

Trip Planner

Search our weather history database for the weather conditions in past years. The results will help you decide how hot, cold, wet, or windy it might be!

Date:

Astronomy

Oct. 24, 2013 Rise Set
Actual Time 8:18 AM CDT 6:41 PM CDT
Civil Twilight 7:46 AM CDT 7:13 PM CDT
Nautical Twilight 7:10 AM CDT 7:49 PM CDT
Astronomical Twilight 6:35 AM CDT 8:24 PM CDT
Moon 10:59 PM CDT (10/24) 1:29 PM CDT (10/24)
Length of Visible Light 11h 26m
Length of Day
10h 23m
Waning Gibbous, 71% of the Moon is Illuminated
Oct 24
Waning Gibbous
Oct 26
Last Quarter
Nov 3
New
Nov 9
First Quarter
Nov 17
Full

Hourly Weather History & Observations

Time (CDT) Temp. Windchill Dew Point Humidity Pressure Visibility Wind Dir Wind Speed Gust Speed Precip Events Conditions
12:15 AM 24.8 °F 20.5 °F 21.2 °F 86% 30.28 in 10.0 mi SSW 3.5 mph - N/A   Partly Cloudy
12:35 AM 23.0 °F 17.0 °F 19.4 °F 86% 30.28 in 10.0 mi SSW 4.6 mph - N/A   Partly Cloudy
12:55 AM 23.0 °F 17.0 °F 19.4 °F 86% 30.28 in 10.0 mi SSW 4.6 mph - N/A   Partly Cloudy
1:15 AM 24.8 °F 20.5 °F 23.0 °F 93% 30.29 in 10.0 mi SW 3.5 mph - N/A   Partly Cloudy
1:35 AM 24.8 °F - 21.2 °F 86% 30.29 in 10.0 mi Calm Calm - N/A   Clear
1:55 AM 24.8 °F 19.1 °F 23.0 °F 93% 30.29 in 10.0 mi WSW 4.6 mph - N/A   Clear
2:15 AM 24.8 °F 16.1 °F 23.0 °F 93% 30.29 in 10.0 mi WSW 8.1 mph - N/A   Clear
2:35 AM 24.8 °F 16.9 °F 23.0 °F 93% 30.30 in 10.0 mi SW 6.9 mph - N/A   Clear
2:55 AM 24.8 °F 15.3 °F 23.0 °F 93% 30.30 in 10.0 mi WSW 9.2 mph - N/A   Clear
3:15 AM 24.8 °F 16.1 °F 23.0 °F 93% 30.30 in 10.0 mi WSW 8.1 mph - N/A   Partly Cloudy
3:35 AM 24.8 °F 17.9 °F 23.0 °F 93% 30.30 in 10.0 mi WSW 5.8 mph - N/A   Mostly Cloudy
3:55 AM 24.8 °F 16.9 °F 21.2 °F 86% 30.30 in 10.0 mi WSW 6.9 mph - N/A   Scattered Clouds
4:15 AM 24.8 °F 14.6 °F 23.0 °F 93% 30.30 in 10.0 mi WSW 10.4 mph - N/A   Scattered Clouds
4:35 AM 24.8 °F 16.1 °F 21.2 °F 86% 30.31 in 10.0 mi WSW 8.1 mph - N/A   Partly Cloudy
4:55 AM 23.0 °F 13.1 °F 21.2 °F 93% 30.31 in 10.0 mi WSW 9.2 mph - N/A   Clear
5:15 AM 23.0 °F 13.1 °F 21.2 °F 93% 30.31 in 10.0 mi WSW 9.2 mph - N/A   Clear
5:35 AM 23.0 °F 14.7 °F 21.2 °F 93% 30.31 in 10.0 mi WSW 6.9 mph - N/A   Clear
5:55 AM 23.0 °F 14.7 °F 21.2 °F 93% 30.31 in 10.0 mi WSW 6.9 mph - N/A   Clear
6:15 AM 23.0 °F 15.8 °F 19.4 °F 86% 30.32 in 10.0 mi WSW 5.8 mph - N/A   Clear
6:35 AM 23.0 °F 15.8 °F 19.4 °F 86% 30.32 in 10.0 mi SW 5.8 mph - N/A   Clear
6:55 AM 23.0 °F 15.8 °F 19.4 °F 86% 30.32 in 10.0 mi WSW 5.8 mph - N/A   Clear
7:15 AM 23.0 °F 14.7 °F 21.2 °F 93% 30.32 in 10.0 mi WSW 6.9 mph - N/A   Clear
7:35 AM 23.0 °F 14.7 °F 21.2 °F 93% 30.32 in 10.0 mi WSW 6.9 mph - N/A   Clear
7:55 AM 23.0 °F 15.8 °F 19.4 °F 86% 30.32 in 10.0 mi SW 5.8 mph - N/A   Clear
8:15 AM 23.0 °F 17.0 °F 19.4 °F 86% 30.32 in 10.0 mi SW 4.6 mph - N/A   Clear
8:35 AM 23.0 °F 17.0 °F 19.4 °F 86% 30.33 in 10.0 mi SW 4.6 mph - N/A   Partly Cloudy
8:55 AM 24.8 °F 17.9 °F 21.2 °F 86% 30.33 in 10.0 mi SW 5.8 mph - N/A   Mostly Cloudy
9:15 AM 24.8 °F 19.1 °F 23.0 °F 93% 30.33 in 10.0 mi SW 4.6 mph - N/A   Overcast
9:35 AM 26.6 °F 19.1 °F 24.8 °F 93% 30.33 in 10.0 mi SW 6.9 mph - N/A   Overcast
9:55 AM 26.6 °F 20.0 °F 24.8 °F 93% 30.34 in 10.0 mi SW 5.8 mph - N/A   Overcast
10:15 AM 28.4 °F 22.2 °F 26.6 °F 93% 30.34 in 10.0 mi WSW 5.8 mph - N/A   Overcast
10:35 AM 28.4 °F 22.2 °F 26.6 °F 93% 30.35 in 10.0 mi SW 5.8 mph - N/A   Overcast
10:55 AM 30.2 °F 24.3 °F 28.4 °F 93% 30.35 in 10.0 mi WSW 5.8 mph - N/A   Overcast
11:15 AM 32.0 °F 26.4 °F 28.4 °F 87% 30.35 in 10.0 mi WSW 5.8 mph - N/A   Overcast
11:35 AM 32.0 °F 26.4 °F 30.2 °F 93% 30.35 in 10.0 mi WSW 5.8 mph - N/A   Overcast
11:55 AM 32.0 °F 25.6 °F 32.0 °F 100% 30.35 in 10.0 mi WSW 6.9 mph - N/A   Overcast
12:15 PM 35.6 °F 29.2 °F 32.0 °F 87% 30.35 in 10.0 mi WSW 8.1 mph - N/A   Overcast
12:35 PM 35.6 °F 29.9 °F 32.0 °F 87% 30.34 in 10.0 mi West 6.9 mph - N/A   Overcast
12:55 PM 35.6 °F 29.9 °F 32.0 °F 87% 30.34 in 10.0 mi NW 6.9 mph - N/A   Overcast
1:15 PM 37.4 °F 31.4 °F 28.4 °F 70% 30.34 in 10.0 mi WNW 8.1 mph - N/A   Overcast
1:35 PM 37.4 °F 32.8 °F 28.4 °F 70% 30.33 in 10.0 mi NW 5.8 mph - N/A   Overcast
1:55 PM 37.4 °F 32.8 °F 28.4 °F 70% 30.33 in 10.0 mi WNW 5.8 mph - N/A   Overcast
2:15 PM 37.4 °F 33.8 °F 26.6 °F 65% 30.32 in 10.0 mi NW 4.6 mph - N/A   Overcast
2:35 PM 37.4 °F 32.1 °F 28.4 °F 70% 30.32 in 10.0 mi WNW 6.9 mph - N/A   Overcast
2:55 PM 37.4 °F 32.1 °F 28.4 °F 70% 30.32 in 10.0 mi WNW 6.9 mph - N/A   Overcast
3:15 PM 37.4 °F 32.8 °F 26.6 °F 65% 30.32 in 7.0 mi WNW 5.8 mph - N/A   Overcast
3:35 PM 39.2 °F 33.6 °F 26.6 °F 61% 30.31 in 10.0 mi NW 8.1 mph - N/A   Overcast
3:55 PM 39.2 °F 35.0 °F 26.6 °F 61% 30.31 in 9.0 mi NNW 5.8 mph - N/A   Overcast
4:15 PM 39.2 °F 35.9 °F 26.6 °F 61% 30.30 in 10.0 mi NW 4.6 mph - N/A   Overcast
4:35 PM 39.2 °F 35.0 °F 26.6 °F 61% 30.30 in 8.0 mi West 5.8 mph - N/A   Mostly Cloudy
4:55 PM 39.2 °F 35.9 °F 26.6 °F 61% 30.30 in 9.0 mi North 4.6 mph - N/A   Partly Cloudy
5:15 PM 39.2 °F 35.9 °F 26.6 °F 61% 30.29 in 10.0 mi North 4.6 mph - N/A   Clear
5:35 PM 39.2 °F 37.0 °F 26.6 °F 61% 30.28 in 10.0 mi NNW 3.5 mph - N/A   Clear
5:55 PM 39.2 °F - 26.6 °F 61% 30.28 in 10.0 mi Calm Calm - N/A   Clear
6:15 PM 37.4 °F - 26.6 °F 65% 30.28 in 10.0 mi Calm Calm - N/A   Clear
6:35 PM 32.0 °F - 26.6 °F 80% 30.27 in 10.0 mi Calm Calm - N/A   Clear
6:55 PM 28.4 °F 24.6 °F 24.8 °F 86% 30.27 in 10.0 mi SE 3.5 mph - N/A   Clear
7:15 PM 28.4 °F 23.3 °F 24.8 °F 86% 30.27 in 10.0 mi SE 4.6 mph - N/A   Clear
7:35 PM 26.6 °F 19.1 °F 23.0 °F 86% 30.27 in 9.0 mi SSE 6.9 mph - N/A   Clear
7:55 PM 24.8 °F 16.9 °F 23.0 °F 93% 30.27 in 5.0 mi SSE 6.9 mph - N/A   Clear
8:15 PM 24.8 °F 16.1 °F 23.0 °F 93% 30.26 in 5.0 mi SSE 8.1 mph - N/A   Clear
8:35 PM 26.6 °F 18.2 °F 24.8 °F 93% 30.25 in 5.0 mi SSE 8.1 mph - N/A   Clear
8:55 PM 26.6 °F 19.1 °F 24.8 °F 93% 30.25 in 5.0 mi SSE 6.9 mph - N/A   Clear
9:15 PM 26.6 °F 17.5 °F 24.8 °F 93% 30.25 in 5.0 mi SSE 9.2 mph - N/A   Clear
9:35 PM 26.6 °F 18.2 °F 24.8 °F 93% 30.24 in 6.0 mi SSE 8.1 mph - N/A   Clear
9:55 PM 26.6 °F 20.0 °F 23.0 °F 86% 30.24 in 5.0 mi SSE 5.8 mph - N/A   Clear
10:15 PM 26.6 °F 21.2 °F 23.0 °F 86% 30.23 in 5.0 mi SSE 4.6 mph - N/A   Clear
10:35 PM 26.6 °F - 24.8 °F 93% 30.23 in 5.0 mi Calm Calm - N/A   Clear
10:55 PM 28.4 °F - 24.8 °F 86% 30.23 in 6.0 mi Calm Calm - N/A   Clear
11:15 PM 28.4 °F - 24.8 °F 86% 30.22 in 7.0 mi Calm Calm - N/A   Partly Cloudy
11:35 PM 28.4 °F - 24.8 °F 86% 30.21 in 8.0 mi Calm Calm - N/A   Clear
11:55 PM 26.6 °F - 23.0 °F 86% 30.20 in 10.0 mi Calm Calm - N/A   Clear